sensor_id;sensor_type;location;lat;lon;timestamp;pressure;altitude;pressure_sealevel;temperature;humidity
7532;BME280;3807;49.030;8.714;2023-02-16T00:01:33;100438.38;;;3.34;71.53
7532;BME280;3807;49.030;8.714;2023-02-16T00:03:58;100438.47;;;3.39;71.49
7532;BME280;3807;49.030;8.714;2023-02-16T00:06:25;100435.16;;;3.43;71.14
7532;BME280;3807;49.030;8.714;2023-02-16T00:08:53;100431.69;;;3.35;71.38
7532;BME280;3807;49.030;8.714;2023-02-16T00:11:26;100432.34;;;3.23;71.93
7532;BME280;3807;49.030;8.714;2023-02-16T00:14:11;100432.41;;;3.26;71.62
7532;BME280;3807;49.030;8.714;2023-02-16T00:16:38;100420.59;;;3.22;71.74
7532;BME280;3807;49.030;8.714;2023-02-16T00:19:24;100426.53;;;3.27;71.45
7532;BME280;3807;49.030;8.714;2023-02-16T00:21:52;100422.47;;;3.36;71.13
7532;BME280;3807;49.030;8.714;2023-02-16T00:24:18;100432.41;;;3.26;71.25
7532;BME280;3807;49.030;8.714;2023-02-16T00:26:44;100422.38;;;3.28;71.37
7532;BME280;3807;49.030;8.714;2023-02-16T00:29:16;100411.22;;;3.10;71.78
7532;BME280;3807;49.030;8.714;2023-02-16T00:31:43;100414.78;;;3.26;71.35
7532;BME280;3807;49.030;8.714;2023-02-16T00:36:56;100412.25;;;3.26;71.12
7532;BME280;3807;49.030;8.714;2023-02-16T00:39:22;100410.44;;;3.15;71.60
7532;BME280;3807;49.030;8.714;2023-02-16T00:42:34;100410.44;;;3.16;71.50
7532;BME280;3807;49.030;8.714;2023-02-16T00:44:40;100403.63;;;3.07;71.65
7532;BME280;3807;49.030;8.714;2023-02-16T00:47:19;100400.38;;;3.16;71.30
7532;BME280;3807;49.030;8.714;2023-02-16T00:49:47;100397.91;;;3.19;71.37
7532;BME280;3807;49.030;8.714;2023-02-16T00:52:33;100407.91;;;3.16;71.33
7532;BME280;3807;49.030;8.714;2023-02-16T00:55:02;100398.59;;;3.07;71.28
7532;BME280;3807;49.030;8.714;2023-02-16T00:57:33;100409.53;;;3.13;71.31
7532;BME280;3807;49.030;8.714;2023-02-16T01:00:04;100402.78;;;3.10;71.43
7532;BME280;3807;49.030;8.714;2023-02-16T01:02:30;100411.22;;;3.10;71.30
7532;BME280;3807;49.030;8.714;2023-02-16T01:04:56;100411.22;;;3.12;71.12
7532;BME280;3807;49.030;8.714;2023-02-16T01:07:21;100406.28;;;3.18;70.91
7532;BME280;3807;49.030;8.714;2023-02-16T01:10:05;100402.87;;;3.15;70.84
7532;BME280;3807;49.030;8.714;2023-02-16T01:12:49;100398.72;;;3.18;70.55
7532;BME280;3807;49.030;8.714;2023-02-16T01:15:25;100382.66;;;3.08;70.82
7532;BME280;3807;49.030;8.714;2023-02-16T01:17:50;100392.69;;;3.07;70.93
7532;BME280;3807;49.030;8.714;2023-02-16T01:20:21;100391.88;;;3.08;70.82
7532;BME280;3807;49.030;8.714;2023-02-16T01:22:46;100399.37;;;3.06;70.91
7532;BME280;3807;49.030;8.714;2023-02-16T01:25:13;100401.00;;;3.03;70.98
7532;BME280;3807;49.030;8.714;2023-02-16T01:27:39;100400.84;;;2.92;71.15
7532;BME280;3807;49.030;8.714;2023-02-16T01:30:07;100406.03;;;3.01;70.92
7532;BME280;3807;49.030;8.714;2023-02-16T01:32:33;100406.91;;;3.05;70.83
7532;BME280;3807;49.030;8.714;2023-02-16T01:34:58;100409.97;;;2.85;71.14
7532;BME280;3807;49.030;8.714;2023-02-16T01:37:24;100414.44;;;3.02;70.66
7532;BME280;3807;49.030;8.714;2023-02-16T01:39:49;100409.38;;;3.00;70.82
7532;BME280;3807;49.030;8.714;2023-02-16T01:44:55;100402.31;;;2.76;71.19
7532;BME280;3807;49.030;8.714;2023-02-16T01:49:56;100405.97;;;2.98;70.46
7532;BME280;3807;49.030;8.714;2023-02-16T01:52:36;100396.75;;;2.97;70.50
7532;BME280;3807;49.030;8.714;2023-02-16T01:57:48;100392.41;;;2.89;70.72
7532;BME280;3807;49.030;8.714;2023-02-16T02:03:18;100397.47;;;2.90;70.46
7532;BME280;3807;49.030;8.714;2023-02-16T02:06:06;100394.03;;;2.85;70.49
7532;BME280;3807;49.030;8.714;2023-02-16T02:08:48;100395.56;;;2.75;70.86
7532;BME280;3807;49.030;8.714;2023-02-16T02:11:24;100394.88;;;2.85;70.51
7532;BME280;3807;49.030;8.714;2023-02-16T02:14:13;100400.78;;;2.87;70.44
7532;BME280;3807;49.030;8.714;2023-02-16T02:16:52;100398.94;;;2.76;70.42
7532;BME280;3807;49.030;8.714;2023-02-16T02:19:19;100401.31;;;2.68;71.10
7532;BME280;3807;49.030;8.714;2023-02-16T02:27:33;100398.12;;;2.77;70.42
7532;BME280;3807;49.030;8.714;2023-02-16T02:44:45;100382.69;;;2.57;70.75
7532;BME280;3807;49.030;8.714;2023-02-16T02:47:11;100373.63;;;2.65;70.41
7532;BME280;3807;49.030;8.714;2023-02-16T02:49:37;100371.06;;;2.62;70.52
7532;BME280;3807;49.030;8.714;2023-02-16T02:52:02;100364.47;;;2.70;70.06
7532;BME280;3807;49.030;8.714;2023-02-16T02:54:30;100366.94;;;2.66;70.18
7532;BME280;3807;49.030;8.714;2023-02-16T03:02:59;100368.50;;;2.60;70.20
7532;BME280;3807;49.030;8.714;2023-02-16T03:05:30;100356.72;;;2.58;70.53
7532;BME280;3807;49.030;8.714;2023-02-16T03:08:01;100358.31;;;2.51;70.63
7532;BME280;3807;49.030;8.714;2023-02-16T03:10:32;100368.34;;;2.50;70.71
7532;BME280;3807;49.030;8.714;2023-02-16T03:13:22;100360.03;;;2.54;70.49
7532;BME280;3807;49.030;8.714;2023-02-16T03:15:51;100370.00;;;2.48;70.68
7532;BME280;3807;49.030;8.714;2023-02-16T03:18:24;100361.63;;;2.49;70.70
7532;BME280;3807;49.030;8.714;2023-02-16T03:21:11;100365.03;;;2.52;70.32
7532;BME280;3807;49.030;8.714;2023-02-16T03:23:57;100370.84;;;2.48;70.44
7532;BME280;3807;49.030;8.714;2023-02-16T03:26:43;100364.09;;;2.44;70.61
7532;BME280;3807;49.030;8.714;2023-02-16T03:29:26;100370.91;;;2.53;70.27
7532;BME280;3807;49.030;8.714;2023-02-16T03:31:54;100362.47;;;2.51;70.09
7532;BME280;3807;49.030;8.714;2023-02-16T03:34:21;100364.97;;;2.49;70.11
7532;BME280;3807;49.030;8.714;2023-02-16T03:36:53;100362.47;;;2.49;70.04
7532;BME280;3807;49.030;8.714;2023-02-16T03:39:23;100359.84;;;2.42;70.24
7532;BME280;3807;49.030;8.714;2023-02-16T03:41:51;100367.38;;;2.43;70.10
7532;BME280;3807;49.030;8.714;2023-02-16T03:44:17;100359.94;;;2.48;70.00
7532;BME280;3807;49.030;8.714;2023-02-16T03:46:43;100362.47;;;2.49;69.74
7532;BME280;3807;49.030;8.714;2023-02-16T03:49:09;100355.72;;;2.45;70.08
7532;BME280;3807;49.030;8.714;2023-02-16T03:51:34;100363.25;;;2.47;70.05
7532;BME280;3807;49.030;8.714;2023-02-16T03:54:00;100361.63;;;2.49;69.84
7532;BME280;3807;49.030;8.714;2023-02-16T03:56:25;100362.37;;;2.43;69.83
7532;BME280;3807;49.030;8.714;2023-02-16T03:58:51;100359.91;;;2.46;69.77
7532;BME280;3807;49.030;8.714;2023-02-16T04:01:16;100363.22;;;2.44;69.74
7532;BME280;3807;49.030;8.714;2023-02-16T04:03:41;100365.66;;;2.37;69.86
7532;BME280;3807;49.030;8.714;2023-02-16T04:06:07;100364.75;;;2.34;70.23
7532;BME280;3807;49.030;8.714;2023-02-16T04:08:32;100365.66;;;2.37;69.96
7532;BME280;3807;49.030;8.714;2023-02-16T04:10:57;100363.97;;;2.39;69.93
7532;BME280;3807;49.030;8.714;2023-02-16T04:13:24;100363.91;;;2.35;69.88
7532;BME280;3807;49.030;8.714;2023-02-16T04:15:50;100362.19;;;2.32;70.22
7532;BME280;3807;49.030;8.714;2023-02-16T04:18:15;100369.72;;;2.32;70.00
7532;BME280;3807;49.030;8.714;2023-02-16T04:20:41;100369.69;;;2.29;70.01
7532;BME280;3807;49.030;8.714;2023-02-16T04:23:06;100365.59;;;2.34;69.87
7532;BME280;3807;49.030;8.714;2023-02-16T04:25:32;100371.34;;;2.29;70.09
7532;BME280;3807;49.030;8.714;2023-02-16T04:27:58;100368.84;;;2.29;69.94
7532;BME280;3807;49.030;8.714;2023-02-16T04:30:25;100368.53;;;2.10;70.95
7532;BME280;3807;49.030;8.714;2023-02-16T04:32:51;100376.25;;;2.21;70.29
7532;BME280;3807;49.030;8.714;2023-02-16T04:35:17;100379.59;;;2.22;70.10
7532;BME280;3807;49.030;8.714;2023-02-16T04:37:43;100380.50;;;2.25;69.89
7532;BME280;3807;49.030;8.714;2023-02-16T04:40:09;100386.34;;;2.24;69.86
7532;BME280;3807;49.030;8.714;2023-02-16T04:42:38;100390.44;;;2.19;70.17
7532;BME280;3807;49.030;8.714;2023-02-16T04:45:04;100371.16;;;2.18;69.91
7532;BME280;3807;49.030;8.714;2023-02-16T04:47:29;100377.03;;;2.19;69.99
7532;BME280;3807;49.030;8.714;2023-02-16T04:49:54;100375.31;;;2.16;70.05
7532;BME280;3807;49.030;8.714;2023-02-16T04:52:20;100380.31;;;2.14;69.93
7532;BME280;3807;49.030;8.714;2023-02-16T04:54:45;100376.13;;;2.15;70.19
7532;BME280;3807;49.030;8.714;2023-02-16T04:57:11;100385.41;;;2.19;69.87
7532;BME280;3807;49.030;8.714;2023-02-16T04:59:36;100379.53;;;2.17;69.84
7532;BME280;3807;49.030;8.714;2023-02-16T05:02:02;100388.75;;;2.17;69.75
7532;BME280;3807;49.030;8.714;2023-02-16T05:04:27;100377.78;;;2.13;69.84
7532;BME280;3807;49.030;8.714;2023-02-16T05:06:53;100372.72;;;2.10;70.04
7532;BME280;3807;49.030;8.714;2023-02-16T05:09:18;100378.53;;;2.09;69.84
7532;BME280;3807;49.030;8.714;2023-02-16T05:11:43;100380.97;;;2.04;69.92
7532;BME280;3807;49.030;8.714;2023-02-16T05:14:33;100392.75;;;2.08;69.97
7532;BME280;3807;49.030;8.714;2023-02-16T05:19:36;100380.13;;;2.02;70.15
7532;BME280;3807;49.030;8.714;2023-02-16T05:22:02;100389.28;;;2.02;69.84
7532;BME280;3807;49.030;8.714;2023-02-16T05:24:27;100381.03;;;2.07;69.81
7532;BME280;3807;49.030;8.714;2023-02-16T05:26:52;100374.31;;;2.06;69.62
7532;BME280;3807;49.030;8.714;2023-02-16T05:29:18;100381.78;;;2.03;69.64
7532;BME280;3807;49.030;8.714;2023-02-16T05:31:43;100380.94;;;2.03;69.75
7532;BME280;3807;49.030;8.714;2023-02-16T05:34:09;100377.38;;;1.91;70.36
7532;BME280;3807;49.030;8.714;2023-02-16T05:36:34;100385.00;;;1.96;69.93
7532;BME280;3807;49.030;8.714;2023-02-16T05:39:00;100385.00;;;1.96;70.09
7532;BME280;3807;49.030;8.714;2023-02-16T05:41:25;100387.53;;;1.98;69.79
7532;BME280;3807;49.030;8.714;2023-02-16T05:44:01;100383.97;;;1.85;70.37
7532;BME280;3807;49.030;8.714;2023-02-16T05:46:29;100390.69;;;1.87;70.04
7532;BME280;3807;49.030;8.714;2023-02-16T05:48:56;100387.53;;;1.96;69.84
7532;BME280;3807;49.030;8.714;2023-02-16T05:51:21;100396.56;;;1.88;69.97
7532;BME280;3807;49.030;8.714;2023-02-16T05:53:47;100402.41;;;1.87;69.96
7532;BME280;3807;49.030;8.714;2023-02-16T05:56:12;100395.78;;;1.89;69.79
7532;BME280;3807;49.030;8.714;2023-02-16T05:58:38;100402.34;;;1.84;70.07
7532;BME280;3807;49.030;8.714;2023-02-16T06:01:04;100397.38;;;1.85;69.88
7532;BME280;3807;49.030;8.714;2023-02-16T06:03:29;100403.16;;;1.81;70.23
7532;BME280;3807;49.030;8.714;2023-02-16T06:05:57;100400.66;;;1.81;69.95
7532;BME280;3807;49.030;8.714;2023-02-16T06:08:23;100402.34;;;1.84;69.77
7532;BME280;3807;49.030;8.714;2023-02-16T06:10:49;100402.19;;;1.75;69.98
7532;BME280;3807;49.030;8.714;2023-02-16T06:13:15;100399.78;;;1.81;69.93
7532;BME280;3807;49.030;8.714;2023-02-16T06:15:41;100396.41;;;1.79;70.03
7532;BME280;3807;49.030;8.714;2023-02-16T06:18:08;100412.34;;;1.81;69.77
7532;BME280;3807;49.030;8.714;2023-02-16T06:20:35;100401.31;;;1.74;69.80
7532;BME280;3807;49.030;8.714;2023-02-16T06:23:01;100407.25;;;1.78;69.74
7532;BME280;3807;49.030;8.714;2023-02-16T06:25:26;100406.37;;;1.76;69.85
7532;BME280;3807;49.030;8.714;2023-02-16T06:27:51;100417.25;;;1.75;69.76
7532;BME280;3807;49.030;8.714;2023-02-16T06:30:17;100404.59;;;1.70;69.77
7532;BME280;3807;49.030;8.714;2023-02-16T06:32:43;100405.41;;;1.69;69.85
7532;BME280;3807;49.030;8.714;2023-02-16T06:35:08;100405.53;;;1.75;69.55
7532;BME280;3807;49.030;8.714;2023-02-16T06:37:34;100399.34;;;1.59;70.46
7532;BME280;3807;49.030;8.714;2023-02-16T06:39:59;100406.19;;;1.66;70.04
7532;BME280;3807;49.030;8.714;2023-02-16T06:42:24;100402.56;;;1.52;70.93
7532;BME280;3807;49.030;8.714;2023-02-16T06:44:50;100402.00;;;1.65;70.00
7532;BME280;3807;49.030;8.714;2023-02-16T06:47:15;100399.56;;;1.69;69.87
7532;BME280;3807;49.030;8.714;2023-02-16T06:49:40;100398.50;;;1.59;70.17
7532;BME280;3807;49.030;8.714;2023-02-16T06:52:05;100407.03;;;1.67;69.82
7532;BME280;3807;49.030;8.714;2023-02-16T06:54:31;100403.59;;;1.62;69.98
7532;BME280;3807;49.030;8.714;2023-02-16T06:56:56;100399.41;;;1.61;69.92
7532;BME280;3807;49.030;8.714;2023-02-16T06:59:21;100404.38;;;1.59;69.82
7532;BME280;3807;49.030;8.714;2023-02-16T07:01:47;100414.50;;;1.62;69.83
7532;BME280;3807;49.030;8.714;2023-02-16T07:04:12;100421.09;;;1.59;69.87
7532;BME280;3807;49.030;8.714;2023-02-16T07:06:38;100427.88;;;1.63;69.39
7532;BME280;3807;49.030;8.714;2023-02-16T07:09:04;100427.09;;;1.64;69.80
7532;BME280;3807;49.030;8.714;2023-02-16T07:11:29;100427.78;;;1.58;69.86
7532;BME280;3807;49.030;8.714;2023-02-16T07:13:54;100432.75;;;1.55;69.87
7532;BME280;3807;49.030;8.714;2023-02-16T07:16:20;100432.59;;;1.48;69.90
7532;BME280;3807;49.030;8.714;2023-02-16T07:18:45;100433.59;;;1.56;70.09
7532;BME280;3807;49.030;8.714;2023-02-16T07:21:11;100435.25;;;1.55;70.12
7532;BME280;3807;49.030;8.714;2023-02-16T07:23:37;100429.25;;;1.47;70.16
7532;BME280;3807;49.030;8.714;2023-02-16T07:26:03;100426.13;;;1.57;69.97
7532;BME280;3807;49.030;8.714;2023-02-16T07:28:28;100433.66;;;1.57;69.87
7532;BME280;3807;49.030;8.714;2023-02-16T07:30:53;100434.34;;;1.50;70.11
7532;BME280;3807;49.030;8.714;2023-02-16T07:33:19;100433.37;;;1.45;70.43
7532;BME280;3807;49.030;8.714;2023-02-16T07:35:45;100445.00;;;1.41;70.30
7532;BME280;3807;49.030;8.714;2023-02-16T07:38:11;100448.41;;;1.43;70.25
7532;BME280;3807;49.030;8.714;2023-02-16T07:40:36;100452.75;;;1.52;69.93
7532;BME280;3807;49.030;8.714;2023-02-16T07:43:03;100456.12;;;1.53;69.70
7532;BME280;3807;49.030;8.714;2023-02-16T07:45:30;100452.69;;;1.48;70.09
7532;BME280;3807;49.030;8.714;2023-02-16T07:47:59;100450.91;;;1.43;70.18
7532;BME280;3807;49.030;8.714;2023-02-16T07:50:25;100451.91;;;1.50;70.20
7532;BME280;3807;49.030;8.714;2023-02-16T07:52:50;100451.75;;;1.44;70.03
7532;BME280;3807;49.030;8.714;2023-02-16T07:55:16;100455.19;;;1.49;69.90
7532;BME280;3807;49.030;8.714;2023-02-16T07:57:42;100447.34;;;1.34;70.32
7532;BME280;3807;49.030;8.714;2023-02-16T08:00:08;100453.19;;;1.33;70.63
7532;BME280;3807;49.030;8.714;2023-02-16T08:02:34;100449.78;;;1.29;70.64
7532;BME280;3807;49.030;8.714;2023-02-16T08:04:59;100451.47;;;1.32;70.63
7532;BME280;3807;49.030;8.714;2023-02-16T08:07:25;100463.22;;;1.33;70.55
7532;BME280;3807;49.030;8.714;2023-02-16T08:09:50;100456.81;;;1.46;70.11
7532;BME280;3807;49.030;8.714;2023-02-16T08:12:16;100457.78;;;1.51;69.87
7532;BME280;3807;49.030;8.714;2023-02-16T08:14:42;100453.34;;;1.40;70.39
7532;BME280;3807;49.030;8.714;2023-02-16T08:17:08;100453.38;;;1.42;70.31
7532;BME280;3807;49.030;8.714;2023-02-16T08:19:34;100455.62;;;1.30;70.88
7532;BME280;3807;49.030;8.714;2023-02-16T08:22:01;100453.50;;;1.47;70.11
7532;BME280;3807;49.030;8.714;2023-02-16T08:24:27;100444.06;;;1.36;70.75
7532;BME280;3807;49.030;8.714;2023-02-16T08:26:53;100450.78;;;1.39;70.38
7532;BME280;3807;49.030;8.714;2023-02-16T08:29:20;100450.09;;;1.45;70.42
7532;BME280;3807;49.030;8.714;2023-02-16T08:31:46;100449.41;;;1.50;70.07
7532;BME280;3807;49.030;8.714;2023-02-16T08:34:16;100447.31;;;1.32;70.99
7532;BME280;3807;49.030;8.714;2023-02-16T08:36:43;100444.06;;;1.36;70.75
7532;BME280;3807;49.030;8.714;2023-02-16T08:39:11;100450.00;;;1.40;70.71
7532;BME280;3807;49.030;8.714;2023-02-16T08:41:37;100458.25;;;1.36;70.99
7532;BME280;3807;49.030;8.714;2023-02-16T08:44:07;100441.56;;;1.36;70.88
7532;BME280;3807;49.030;8.714;2023-02-16T08:46:35;100442.59;;;1.46;70.98
7532;BME280;3807;49.030;8.714;2023-02-16T08:49:01;100445.22;;;1.52;70.66
7532;BME280;3807;49.030;8.714;2023-02-16T08:51:28;100452.00;;;1.56;70.30
7532;BME280;3807;49.030;8.714;2023-02-16T08:53:56;100450.47;;;1.63;70.06
7532;BME280;3807;49.030;8.714;2023-02-16T08:56:22;100457.16;;;1.61;70.31
7532;BME280;3807;49.030;8.714;2023-02-16T08:58:48;100458.16;;;1.69;71.11
7532;BME280;3807;49.030;8.714;2023-02-16T09:01:13;100458.91;;;1.65;71.05
7532;BME280;3807;49.030;8.714;2023-02-16T09:03:44;100458.00;;;1.63;71.07
7532;BME280;3807;49.030;8.714;2023-02-16T09:06:12;100458.78;;;1.60;71.59
7532;BME280;3807;49.030;8.714;2023-02-16T09:08:39;100454.72;;;1.64;70.79
7532;BME280;3807;49.030;8.714;2023-02-16T09:11:07;100457.25;;;1.67;71.71
7532;BME280;3807;49.030;8.714;2023-02-16T09:13:34;100459.75;;;1.67;72.44
7532;BME280;3807;49.030;8.714;2023-02-16T09:16:01;100460.06;;;1.81;71.54
7532;BME280;3807;49.030;8.714;2023-02-16T09:18:27;100461.06;;;1.89;72.11
7532;BME280;3807;49.030;8.714;2023-02-16T09:20:52;100458.44;;;1.83;71.33
7532;BME280;3807;49.030;8.714;2023-02-16T09:23:17;100463.66;;;1.94;71.23
7532;BME280;3807;49.030;8.714;2023-02-16T09:25:44;100451.09;;;1.94;71.91
7532;BME280;3807;49.030;8.714;2023-02-16T09:28:10;100452.72;;;1.91;74.08
7532;BME280;3807;49.030;8.714;2023-02-16T09:30:37;100446.22;;;2.00;71.21
7532;BME280;3807;49.030;8.714;2023-02-16T09:33:02;100447.91;;;2.01;71.68
7532;BME280;3807;49.030;8.714;2023-02-16T09:35:28;100443.50;;;1.90;73.11
7532;BME280;3807;49.030;8.714;2023-02-16T09:37:53;100446.91;;;1.93;72.28
7532;BME280;3807;49.030;8.714;2023-02-16T09:40:19;100446.34;;;2.06;73.45
7532;BME280;3807;49.030;8.714;2023-02-16T09:45:30;100453.81;;;2.03;72.69
7532;BME280;3807;49.030;8.714;2023-02-16T09:47:59;100454.91;;;2.17;73.18
7532;BME280;3807;49.030;8.714;2023-02-16T09:50:31;100452.41;;;2.17;71.58
7532;BME280;3807;49.030;8.714;2023-02-16T09:53:05;100459.12;;;2.18;71.27
7532;BME280;3807;49.030;8.714;2023-02-16T09:58:48;100457.69;;;2.32;72.50
7532;BME280;3807;49.030;8.714;2023-02-16T10:01:28;100461.69;;;2.21;71.11
7532;BME280;3807;49.030;8.714;2023-02-16T10:09:44;100459.19;;;2.23;72.96
7532;BME280;3807;49.030;8.714;2023-02-16T10:12:15;100453.56;;;2.34;72.22
7532;BME280;3807;49.030;8.714;2023-02-16T10:14:50;100454.53;;;2.43;72.44
7532;BME280;3807;49.030;8.714;2023-02-16T10:17:31;100457.94;;;2.45;71.59
7532;BME280;3807;49.030;8.714;2023-02-16T10:28:50;100445.84;;;2.72;71.00
7532;BME280;3807;49.030;8.714;2023-02-16T10:30:53;100444.22;;;2.77;71.37
7532;BME280;3807;49.030;8.714;2023-02-16T10:33:42;100434.28;;;2.83;71.17
7532;BME280;3807;49.030;8.714;2023-02-16T10:39:06;100436.31;;;3.07;70.87
7532;BME280;3807;49.030;8.714;2023-02-16T10:41:37;100439.63;;;3.03;69.90
7532;BME280;3807;49.030;8.714;2023-02-16T10:44:23;100425.47;;;3.12;70.43
7532;BME280;3807;49.030;8.714;2023-02-16T10:46:56;100421.38;;;3.18;70.40
7532;BME280;3807;49.030;8.714;2023-02-16T10:49:23;100412.25;;;3.25;70.64
7532;BME280;3807;49.030;8.714;2023-02-16T10:51:50;100412.25;;;3.26;70.55
7532;BME280;3807;49.030;8.714;2023-02-16T10:54:31;100424.13;;;3.35;70.25
7532;BME280;3807;49.030;8.714;2023-02-16T10:57:01;100420.00;;;3.40;69.86
7532;BME280;3807;49.030;8.714;2023-02-16T10:59:39;100420.97;;;3.51;70.45
7532;BME280;3807;49.030;8.714;2023-02-16T11:02:19;100416.03;;;3.56;70.40
7532;BME280;3807;49.030;8.714;2023-02-16T11:04:49;100422.97;;;3.74;70.76
7532;BME280;3807;49.030;8.714;2023-02-16T11:07:24;100416.34;;;3.85;70.80
7532;BME280;3807;49.030;8.714;2023-02-16T11:09:53;100421.47;;;3.93;71.24
7532;BME280;3807;49.030;8.714;2023-02-16T11:12:37;100418.31;;;4.09;71.00
7532;BME280;3807;49.030;8.714;2023-02-16T11:15:19;100415.88;;;4.18;71.55
7532;BME280;3807;49.030;8.714;2023-02-16T11:18:07;100411.00;;;4.34;71.86
7532;BME280;3807;49.030;8.714;2023-02-16T11:23:34;100402.97;;;4.81;72.17
7532;BME280;3807;49.030;8.714;2023-02-16T11:28:39;100386.34;;;5.12;70.85
7532;BME280;3807;49.030;8.714;2023-02-16T11:34:03;100384.78;;;5.35;70.65
7532;BME280;3807;49.030;8.714;2023-02-16T11:39:01;100383.28;;;5.76;71.27
7532;BME280;3807;49.030;8.714;2023-02-16T11:41:28;100375.78;;;5.95;70.30
7532;BME280;3807;49.030;8.714;2023-02-16T11:43:54;100375.81;;;6.08;70.21
7532;BME280;3807;49.030;8.714;2023-02-16T11:46:21;100367.44;;;6.49;69.93
7532;BME280;3807;49.030;8.714;2023-02-16T11:48:47;100361.50;;;6.65;70.01
7532;BME280;3807;49.030;8.714;2023-02-16T11:51:13;100362.34;;;6.68;69.09
7532;BME280;3807;49.030;8.714;2023-02-16T11:53:41;100353.88;;;6.85;68.82
7532;BME280;3807;49.030;8.714;2023-02-16T11:56:23;100356.41;;;6.94;68.74
7532;BME280;3807;49.030;8.714;2023-02-16T12:04:48;100340.16;;;7.55;69.75
7532;BME280;3807;49.030;8.714;2023-02-16T12:10:10;100331.75;;;7.42;69.01
7532;BME280;3807;49.030;8.714;2023-02-16T12:12:59;100313.75;;;7.91;67.86
7532;BME280;3807;49.030;8.714;2023-02-16T12:15:43;100310.94;;;8.31;66.06
7532;BME280;3807;49.030;8.714;2023-02-16T12:23:54;100302.66;;;8.06;68.11
7532;BME280;3807;49.030;8.714;2023-02-16T12:37:33;100304.53;;;8.84;66.96
7532;BME280;3807;49.030;8.714;2023-02-16T12:40:13;100303.50;;;8.99;66.34
7532;BME280;3807;49.030;8.714;2023-02-16T12:45:17;100287.09;;;9.27;66.74
7532;BME280;3807;49.030;8.714;2023-02-16T12:47:51;100297.25;;;9.29;66.52
7532;BME280;3807;49.030;8.714;2023-02-16T12:50:24;100294.59;;;9.37;66.70
7532;BME280;3807;49.030;8.714;2023-02-16T12:52:56;100289.34;;;9.50;66.53
7532;BME280;3807;49.030;8.714;2023-02-16T12:55:34;100286.84;;;9.46;67.02
7532;BME280;3807;49.030;8.714;2023-02-16T13:00:43;100273.88;;;9.64;66.10
7532;BME280;3807;49.030;8.714;2023-02-16T13:06:22;100263.50;;;9.78;65.73
7532;BME280;3807;49.030;8.714;2023-02-16T13:11:54;100275.97;;;9.95;66.85
7532;BME280;3807;49.030;8.714;2023-02-16T13:14:28;100268.16;;;10.06;65.54
7532;BME280;3807;49.030;8.714;2023-02-16T13:16:58;100265.53;;;10.12;65.70
7532;BME280;3807;49.030;8.714;2023-02-16T13:19:26;100261.72;;;10.37;63.80
7532;BME280;3807;49.030;8.714;2023-02-16T13:24:54;100259.47;;;10.68;64.22
7532;BME280;3807;49.030;8.714;2023-02-16T13:35:38;100256.72;;;10.79;63.75
7532;BME280;3807;49.030;8.714;2023-02-16T13:44:02;100259.72;;;11.00;63.13
7532;BME280;3807;49.030;8.714;2023-02-16T13:46:35;100253.13;;;10.89;62.68
7532;BME280;3807;49.030;8.714;2023-02-16T13:49:02;100249.69;;;10.90;64.30
7532;BME280;3807;49.030;8.714;2023-02-16T13:51:39;100255.44;;;11.00;62.74
7532;BME280;3807;49.030;8.714;2023-02-16T13:54:06;100249.25;;;11.13;63.43
7532;BME280;3807;49.030;8.714;2023-02-16T13:56:39;100258.94;;;10.94;64.13
7532;BME280;3807;49.030;8.714;2023-02-16T14:01:46;100249.06;;;10.79;64.73
7532;BME280;3807;49.030;8.714;2023-02-16T14:06:47;100245.16;;;11.05;64.91
7532;BME280;3807;49.030;8.714;2023-02-16T14:14:39;100226.66;;;11.35;62.62
7532;BME280;3807;49.030;8.714;2023-02-16T14:25:29;100226.41;;;11.46;62.77
7532;BME280;3807;49.030;8.714;2023-02-16T14:30:28;100226.41;;;11.48;62.09
7532;BME280;3807;49.030;8.714;2023-02-16T14:38:34;100228.31;;;11.75;62.21
7532;BME280;3807;49.030;8.714;2023-02-16T14:41:06;100231.72;;;11.74;60.92
7532;BME280;3807;49.030;8.714;2023-02-16T14:43:43;100235.09;;;11.76;61.18
7532;BME280;3807;49.030;8.714;2023-02-16T14:56:51;100218.75;;;11.83;61.93
7532;BME280;3807;49.030;8.714;2023-02-16T14:59:33;100207.28;;;12.01;59.79
7532;BME280;3807;49.030;8.714;2023-02-16T15:01:59;100206.47;;;11.99;62.38
7532;BME280;3807;49.030;8.714;2023-02-16T15:04:26;100197.91;;;12.02;60.59
7532;BME280;3807;49.030;8.714;2023-02-16T15:06:53;100196.66;;;11.82;61.34
7532;BME280;3807;49.030;8.714;2023-02-16T15:09:28;100199.91;;;11.90;59.70
7532;BME280;3807;49.030;8.714;2023-02-16T15:11:57;100203.81;;;12.04;58.78
7532;BME280;3807;49.030;8.714;2023-02-16T15:14:47;100213.87;;;12.10;57.91
7532;BME280;3807;49.030;8.714;2023-02-16T15:19:52;100207.91;;;12.09;61.49
7532;BME280;3807;49.030;8.714;2023-02-16T15:22:22;100211.34;;;12.08;61.53
7532;BME280;3807;49.030;8.714;2023-02-16T15:25:27;100210.41;;;12.12;60.92
7532;BME280;3807;49.030;8.714;2023-02-16T15:27:54;100208.59;;;12.18;62.10
7532;BME280;3807;49.030;8.714;2023-02-16T15:30:25;100205.00;;;12.23;59.22
7532;BME280;3807;49.030;8.714;2023-02-16T15:32:53;100200.72;;;12.25;58.42
7532;BME280;3807;49.030;8.714;2023-02-16T15:35:27;100196.50;;;12.24;60.46
7532;BME280;3807;49.030;8.714;2023-02-16T15:38:20;100193.53;;;12.07;61.13
7532;BME280;3807;49.030;8.714;2023-02-16T15:40:51;100196.78;;;12.12;60.31
7532;BME280;3807;49.030;8.714;2023-02-16T15:43:33;100194.31;;;12.09;57.64
7532;BME280;3807;49.030;8.714;2023-02-16T15:46:01;100197.41;;;12.22;57.96
7532;BME280;3807;49.030;8.714;2023-02-16T15:48:30;100187.78;;;12.31;60.19
7532;BME280;3807;49.030;8.714;2023-02-16T15:51:07;100186.97;;;12.29;60.75
7532;BME280;3807;49.030;8.714;2023-02-16T15:53:40;100186.81;;;12.35;60.27
7532;BME280;3807;49.030;8.714;2023-02-16T15:56:46;100185.31;;;12.28;60.58
7532;BME280;3807;49.030;8.714;2023-02-16T16:01:47;100193.19;;;12.21;60.44
7532;BME280;3807;49.030;8.714;2023-02-16T16:04:21;100191.88;;;12.37;60.38
7532;BME280;3807;49.030;8.714;2023-02-16T16:06:49;100192.63;;;12.40;58.80
7532;BME280;3807;49.030;8.714;2023-02-16T16:09:25;100192.63;;;12.42;59.28
7532;BME280;3807;49.030;8.714;2023-02-16T16:11:57;100196.00;;;12.43;59.27
7532;BME280;3807;49.030;8.714;2023-02-16T16:14:24;100197.81;;;12.37;60.73
7532;BME280;3807;49.030;8.714;2023-02-16T16:16:50;100196.00;;;12.43;59.21
7532;BME280;3807;49.030;8.714;2023-02-16T16:19:42;100201.19;;;12.39;60.15
7532;BME280;3807;49.030;8.714;2023-02-16T16:24:51;100199.59;;;12.35;60.77
7532;BME280;3807;49.030;8.714;2023-02-16T16:27:27;100190.50;;;12.25;60.86
7532;BME280;3807;49.030;8.714;2023-02-16T16:30:28;100188.75;;;12.27;57.95